Impacts TAF Board
For situational awareness. Not to be used for flight planning purposes.
IDs:

KLBB - Lubbock Intl Arpt, TX, US

Issued at 1720 UTC 02 Aug 2021
Updated at 2257 UTC 02 Aug 2021
Potential Impact None Slight Moderate High
Time2253Z 02/23Z 03/00Z 03/01Z 03/02Z 03/03Z 03/04Z 03/05Z 03/06Z 03/07Z 03/08Z 03/09Z 03/10Z 03/11Z>>
Type OBS PRVL PRVL PRVL PRVL PRVL PRVL PRVL PRVL PRVL PRVL PRVL PRVL PRVL
VIS 10 >6 >6 >6 >6 >6 >6 >6 >6 >6 >6 >6 >6 >6
CIG -- -- -- -- -- -- -- -- -- -- -- -- -- --
Cover FEW SCT SCT SCT SCT SCT SCT SCT SCT SCT SCT SCT SCT SCT
FltCat VFR VFR VFR VFR VFR VFR VFR VFR VFR VFR VFR VFR VFR VFR
WX -- -- -- -- -- -- -- -- -- -- -- -- -- --
WDir 50 50 50 50 50 50 50 50 50 50 50 50 50 50
WSpd 10 10 10 10 10 10 10 10 10 10 10 10 10 10
WGst 16 -- -- -- -- -- -- -- -- -- -- -- -- --
Raw TAF
KLBB 021720Z 0218/0318 05010KT P6SM SCT040 SCT250

Raw METAR
KLBB 022253Z 05010G16KT 10SM FEW065 FEW250 29/11 A3016 RMK AO2 SLP164 T02890106
KLBB 022153Z 02007G18KT 10SM SCT060 SCT250 29/11 A3018 RMK AO2 SLP167 T02890106
KLBB 022053Z 03004KT 10SM SCT065 SCT250 29/11 A3019 RMK AO2 SLP173 T02890106 58022
KLBB 021953Z 06010G14KT 10SM SCT060 SCT250 28/12 A3022 RMK AO2 SLP185 T02830117

METAR Board
Radar Display
Forecast Discussion
For situational awareness. Not to be used for flight planning purposes.